createdAt,value
2019-01-14T00:00:02.670Z,6.53
2019-01-14T00:01:02.803Z,6.53
2019-01-14T00:02:02.600Z,6.53
2019-01-14T00:03:02.797Z,6.51
2019-01-14T00:04:02.502Z,6.51
2019-01-14T00:05:02.492Z,6.5
2019-01-14T00:06:02.521Z,6.5
2019-01-14T00:07:02.650Z,6.47
2019-01-14T00:08:02.774Z,6.47
2019-01-14T00:09:02.526Z,6.47
2019-01-14T00:10:02.634Z,6.45
2019-01-14T00:11:02.640Z,6.44
2019-01-14T00:12:02.547Z,6.44
2019-01-14T00:13:02.493Z,6.43
2019-01-14T00:14:02.672Z,6.43
2019-01-14T00:15:03.013Z,6.42
2019-01-14T00:16:02.893Z,6.41
2019-01-14T00:17:02.553Z,6.45
2019-01-14T00:18:02.557Z,6.44
2019-01-14T00:19:02.537Z,6.43
2019-01-14T00:20:02.627Z,6.41
2019-01-14T00:21:02.483Z,6.4
2019-01-14T00:22:02.585Z,6.43
2019-01-14T00:23:02.482Z,6.44
2019-01-14T00:24:02.852Z,6.44
2019-01-14T00:25:02.605Z,6.44
2019-01-14T00:26:02.540Z,6.45
2019-01-14T00:27:02.495Z,6.46
2019-01-14T00:28:02.482Z,6.45
2019-01-14T00:29:02.459Z,6.45
2019-01-14T00:30:02.645Z,6.45
2019-01-14T00:31:02.415Z,6.45
2019-01-14T00:32:02.715Z,6.45
2019-01-14T00:33:02.658Z,6.41
2019-01-14T00:34:02.514Z,6.47
2019-01-14T00:35:02.466Z,6.48
2019-01-14T00:36:02.541Z,6.48
2019-01-14T00:37:02.594Z,6.47
2019-01-14T00:38:02.487Z,6.45
2019-01-14T00:39:02.636Z,6.45
2019-01-14T00:40:02.713Z,6.45
2019-01-14T00:41:02.513Z,6.43
2019-01-14T00:42:02.451Z,6.44
2019-01-14T00:43:02.481Z,6.44
2019-01-14T00:44:02.431Z,6.44
2019-01-14T00:45:02.430Z,6.41
2019-01-14T00:46:02.709Z,6.41
2019-01-14T00:47:02.709Z,6.43
2019-01-14T00:48:02.717Z,6.41
2019-01-14T00:49:02.586Z,6.43
2019-01-14T00:50:02.828Z,6.41
2019-01-14T00:51:02.692Z,6.43
2019-01-14T00:52:02.499Z,6.41
2019-01-14T00:53:02.855Z,6.43
2019-01-14T00:54:02.518Z,6.4
2019-01-14T00:55:02.411Z,6.4
2019-01-14T00:56:02.755Z,6.4
2019-01-14T00:57:02.793Z,6.4
2019-01-14T00:58:03.006Z,6.43
2019-01-14T00:59:02.404Z,6.43
2019-01-14T01:00:02.522Z,6.39
2019-01-14T01:01:02.377Z,6.41
2019-01-14T01:02:02.630Z,6.44
2019-01-14T01:03:02.441Z,6.43
2019-01-14T01:04:03.264Z,6.43
2019-01-14T01:05:02.554Z,6.42
2019-01-14T01:06:02.408Z,6.44
2019-01-14T01:07:02.519Z,6.42
2019-01-14T01:08:02.552Z,6.44
2019-01-14T01:09:02.815Z,6.44
2019-01-14T01:10:02.512Z,6.43
2019-01-14T01:11:02.401Z,6.43
2019-01-14T01:12:02.399Z,6.4
2019-01-14T01:13:04.192Z,6.44
2019-01-14T01:14:02.593Z,6.42
2019-01-14T01:15:04.235Z,6.4
2019-01-14T01:16:02.349Z,6.4
2019-01-14T01:17:03.558Z,6.4
2019-01-14T01:18:02.596Z,6.39
2019-01-14T01:19:02.769Z,6.4
2019-01-14T01:20:03.250Z,6.38
2019-01-14T01:21:02.549Z,6.37
2019-01-14T01:22:02.417Z,6.35
2019-01-14T01:23:02.402Z,6.35
2019-01-14T01:24:03.273Z,6.34
2019-01-14T01:25:02.548Z,6.34
2019-01-14T01:26:02.394Z,6.37
2019-01-14T01:27:02.803Z,6.35
2019-01-14T01:28:02.622Z,6.36
2019-01-14T01:29:02.800Z,6.35
2019-01-14T01:30:02.461Z,6.34
2019-01-14T01:31:04.164Z,6.34
2019-01-14T01:32:02.649Z,6.34
2019-01-14T01:33:03.204Z,6.33
2019-01-14T01:34:04.175Z,6.33
2019-01-14T01:35:02.502Z,6.34
2019-01-14T01:36:04.215Z,6.34
2019-01-14T01:37:02.583Z,6.37
2019-01-14T01:38:02.403Z,6.35
2019-01-14T01:39:02.646Z,6.39
2019-01-14T01:40:03.198Z,6.37
2019-01-14T01:41:02.587Z,6.38
2019-01-14T01:42:02.482Z,6.36
2019-01-14T01:43:02.367Z,6.34
2019-01-14T01:44:02.445Z,6.34
2019-01-14T01:45:02.452Z,6.33
2019-01-14T01:46:02.516Z,6.33
2019-01-14T01:47:02.668Z,6.32
2019-01-14T01:48:02.574Z,6.28
2019-01-14T01:49:02.445Z,6.27
2019-01-14T01:50:03.216Z,6.26
2019-01-14T01:51:02.457Z,6.25
2019-01-14T01:52:02.491Z,6.25
2019-01-14T01:53:02.354Z,6.26
2019-01-14T01:54:02.656Z,6.28
2019-01-14T01:55:02.688Z,6.26
2019-01-14T01:56:02.599Z,6.26
2019-01-14T01:57:02.564Z,6.24
2019-01-14T01:58:02.708Z,6.26
2019-01-14T01:59:02.376Z,6.22
2019-01-14T02:00:02.626Z,6.22
2019-01-14T02:01:02.505Z,6.21
2019-01-14T02:02:02.680Z,6.22
2019-01-14T02:03:02.565Z,6.2
2019-01-14T02:04:02.359Z,6.21
2019-01-14T02:05:02.442Z,6.22
2019-01-14T02:06:02.347Z,6.23
2019-01-14T02:07:02.696Z,6.21
2019-01-14T02:08:02.420Z,6.2
2019-01-14T02:09:02.398Z,6.19
2019-01-14T02:10:02.537Z,6.19
2019-01-14T02:11:02.262Z,6.2
2019-01-14T02:12:03.058Z,6.17
2019-01-14T02:13:02.283Z,6.15
2019-01-14T02:14:02.410Z,6.16
2019-01-14T02:15:02.269Z,6.15
2019-01-14T02:16:02.429Z,6.14
2019-01-14T02:17:02.302Z,6.13
2019-01-14T02:18:02.390Z,6.13
2019-01-14T02:19:02.803Z,6.12
2019-01-14T02:20:02.334Z,6.13
2019-01-14T02:21:02.292Z,6.08
2019-01-14T02:22:02.277Z,6.09
2019-01-14T02:23:02.344Z,6.07
2019-01-14T02:24:02.331Z,6.06
2019-01-14T02:25:02.397Z,6.04
2019-01-14T02:26:02.309Z,6.05
2019-01-14T02:27:02.561Z,6.04
2019-01-14T02:28:02.789Z,6.01
2019-01-14T02:29:02.367Z,6.03
2019-01-14T02:30:02.984Z,6.02
2019-01-14T02:31:02.320Z,6.01
2019-01-14T02:32:02.628Z,6
2019-01-14T02:33:02.633Z,5.99
2019-01-14T02:34:02.476Z,5.95
2019-01-14T02:35:02.273Z,5.96
2019-01-14T02:36:02.741Z,5.95
2019-01-14T02:37:02.324Z,5.94
2019-01-14T02:38:02.484Z,5.95
2019-01-14T02:39:02.602Z,5.93
2019-01-14T02:40:02.362Z,5.9
2019-01-14T02:41:02.591Z,5.91
2019-01-14T02:42:02.247Z,5.94
2019-01-14T02:43:02.367Z,5.95
2019-01-14T02:44:02.318Z,5.96
2019-01-14T02:45:02.412Z,5.94
2019-01-14T02:46:02.795Z,5.96
2019-01-14T02:47:02.256Z,5.96
2019-01-14T02:48:02.268Z,5.96
2019-01-14T02:49:02.312Z,5.95
2019-01-14T02:50:02.471Z,5.96
2019-01-14T02:51:02.285Z,5.97
2019-01-14T02:52:02.298Z,5.96
2019-01-14T02:53:02.382Z,5.95
2019-01-14T02:54:02.512Z,5.95
2019-01-14T02:55:02.620Z,5.95
2019-01-14T02:56:02.584Z,5.94
2019-01-14T02:57:02.621Z,5.94
2019-01-14T02:58:02.358Z,5.94
2019-01-14T02:59:02.646Z,5.98
2019-01-14T03:00:02.772Z,6.01
2019-01-14T03:01:02.321Z,6.02
2019-01-14T03:02:02.381Z,6.01
2019-01-14T03:03:02.331Z,6.02
2019-01-14T03:04:02.413Z,6
2019-01-14T03:05:02.523Z,6.01
2019-01-14T03:06:02.698Z,5.99
2019-01-14T03:07:03.010Z,6.01
2019-01-14T03:08:03.128Z,6.02
2019-01-14T03:09:02.345Z,6.02
2019-01-14T03:10:02.497Z,6.01
2019-01-14T03:11:02.354Z,6.01
2019-01-14T03:12:02.235Z,6.02
2019-01-14T03:13:02.597Z,5.98
2019-01-14T03:14:02.297Z,5.99
2019-01-14T03:15:02.543Z,6
2019-01-14T03:16:04.018Z,6.02
2019-01-14T03:17:02.500Z,5.99
2019-01-14T03:18:02.226Z,5.99
2019-01-14T03:19:02.249Z,5.99
2019-01-14T03:20:03.270Z,6.01
2019-01-14T03:21:02.435Z,6
2019-01-14T03:22:02.447Z,5.97
2019-01-14T03:23:02.653Z,5.99
2019-01-14T03:24:02.259Z,6.02
2019-01-14T03:25:02.286Z,6
2019-01-14T03:26:02.303Z,5.99
2019-01-14T03:27:02.291Z,6.01
2019-01-14T03:28:02.283Z,6
2019-01-14T03:29:02.167Z,6
2019-01-14T03:30:02.298Z,6
2019-01-14T03:31:03.050Z,6.01
2019-01-14T03:32:03.111Z,6.01
2019-01-14T03:33:02.452Z,6.03
2019-01-14T03:34:02.732Z,6.04
2019-01-14T03:35:02.335Z,6.03
2019-01-14T03:36:03.020Z,6.02
2019-01-14T03:37:06.134Z,6.01
2019-01-14T03:38:02.342Z,6
2019-01-14T03:39:02.389Z,5.97
2019-01-14T03:40:02.502Z,6
2019-01-14T03:41:02.159Z,5.99
2019-01-14T03:42:02.197Z,5.98
2019-01-14T03:43:02.553Z,5.95
2019-01-14T03:44:02.244Z,5.97
2019-01-14T03:45:02.472Z,5.94
2019-01-14T03:46:03.996Z,5.94
2019-01-14T03:47:02.255Z,5.93
2019-01-14T03:48:02.418Z,5.92
2019-01-14T03:49:02.332Z,5.91
2019-01-14T03:50:02.444Z,5.88
2019-01-14T03:51:02.289Z,5.87
2019-01-14T03:52:02.880Z,5.86
2019-01-14T03:53:02.695Z,5.87
2019-01-14T03:54:02.263Z,5.83
2019-01-14T03:55:02.480Z,5.81
2019-01-14T03:56:02.495Z,5.82
2019-01-14T03:57:02.243Z,5.82
2019-01-14T03:58:02.405Z,5.82
2019-01-14T03:59:02.531Z,5.81
2019-01-14T04:00:02.277Z,5.81
2019-01-14T04:01:02.194Z,5.81
2019-01-14T04:02:02.439Z,5.81
2019-01-14T04:03:02.324Z,5.81
2019-01-14T04:04:02.178Z,5.81
2019-01-14T04:05:02.441Z,5.81
2019-01-14T04:06:02.194Z,5.81
2019-01-14T04:07:02.205Z,5.81
2019-01-14T04:08:02.372Z,5.83
2019-01-14T04:09:02.174Z,5.81
2019-01-14T04:10:02.435Z,5.82
2019-01-14T04:11:02.750Z,5.81
2019-01-14T04:12:02.193Z,5.82
2019-01-14T04:13:02.217Z,5.82
2019-01-14T04:14:02.805Z,5.82
2019-01-14T04:15:02.519Z,5.83
2019-01-14T04:16:02.254Z,5.85
2019-01-14T04:17:02.253Z,5.86
2019-01-14T04:18:02.122Z,5.82
2019-01-14T04:19:02.247Z,5.85
2019-01-14T04:20:02.642Z,5.85
2019-01-14T04:21:02.163Z,5.85
2019-01-14T04:22:02.379Z,5.85
2019-01-14T04:23:02.151Z,5.86
2019-01-14T04:24:02.158Z,5.86
2019-01-14T04:25:02.208Z,5.86
2019-01-14T04:26:02.744Z,5.86
2019-01-14T04:27:02.432Z,5.85
2019-01-14T04:28:02.288Z,5.86
2019-01-14T04:29:02.527Z,5.86
2019-01-14T04:30:02.268Z,5.86
2019-01-14T04:31:02.234Z,5.85
2019-01-14T04:32:02.453Z,5.86
2019-01-14T04:33:02.382Z,5.86
2019-01-14T04:34:02.457Z,5.85
2019-01-14T04:35:02.385Z,5.83
2019-01-14T04:36:03.886Z,5.85
2019-01-14T04:37:02.494Z,5.85
2019-01-14T04:38:02.480Z,5.85
2019-01-14T04:39:02.445Z,5.82
2019-01-14T04:40:02.381Z,5.86
2019-01-14T04:41:02.210Z,5.84
2019-01-14T04:42:02.412Z,5.85
2019-01-14T04:43:02.328Z,5.85
2019-01-14T04:44:02.105Z,5.84
2019-01-14T04:45:02.460Z,5.82
2019-01-14T04:46:02.268Z,5.83
2019-01-14T04:47:02.237Z,5.81
2019-01-14T04:48:02.572Z,5.81
2019-01-14T04:49:02.307Z,5.8
2019-01-14T04:50:02.365Z,5.81
2019-01-14T04:51:02.982Z,5.8
2019-01-14T04:52:02.122Z,5.8
2019-01-14T04:53:02.384Z,5.8
2019-01-14T04:54:02.281Z,5.78
2019-01-14T04:55:02.101Z,5.8
2019-01-14T04:56:02.597Z,5.79
2019-01-14T04:57:02.356Z,5.77
2019-01-14T04:58:02.437Z,5.79
2019-01-14T04:59:02.148Z,5.77
2019-01-14T05:00:02.437Z,5.79
2019-01-14T05:01:02.149Z,5.77
2019-01-14T05:02:02.064Z,5.77
2019-01-14T05:03:02.218Z,5.77
2019-01-14T05:04:02.427Z,5.75
2019-01-14T05:05:02.498Z,5.75
2019-01-14T05:06:02.175Z,5.75
2019-01-14T05:07:02.151Z,5.76
2019-01-14T05:08:02.346Z,5.75
2019-01-14T05:09:02.065Z,5.76
2019-01-14T05:10:02.563Z,5.76
2019-01-14T05:11:02.025Z,5.76
2019-01-14T05:12:02.020Z,5.76
2019-01-14T05:13:02.502Z,5.75
2019-01-14T05:14:02.331Z,5.76
2019-01-14T05:15:02.430Z,5.76
2019-01-14T05:16:02.160Z,5.76
2019-01-14T05:17:02.422Z,5.75
2019-01-14T05:18:02.091Z,5.77
2019-01-14T05:19:02.315Z,5.77
2019-01-14T05:20:03.930Z,5.8
2019-01-14T05:21:02.711Z,5.78
2019-01-14T05:22:02.137Z,5.82
2019-01-14T05:23:02.181Z,5.81
2019-01-14T05:24:02.118Z,5.83
2019-01-14T05:25:02.172Z,5.83
2019-01-14T05:26:02.185Z,5.83
2019-01-14T05:27:02.214Z,5.84
2019-01-14T05:28:02.233Z,5.87
2019-01-14T05:29:02.426Z,5.84
2019-01-14T05:30:02.297Z,5.85
2019-01-14T05:31:02.314Z,5.87
2019-01-14T05:32:02.133Z,5.88
2019-01-14T05:33:02.218Z,5.9
2019-01-14T05:34:02.005Z,5.89
2019-01-14T05:35:02.432Z,5.9
2019-01-14T05:36:02.427Z,5.91
2019-01-14T05:37:02.367Z,6
2019-01-14T05:38:02.462Z,6.02
2019-01-14T05:39:02.681Z,6.03
2019-01-14T05:40:02.253Z,6.02
2019-01-14T05:41:02.913Z,6.08
2019-01-14T05:42:02.207Z,6.05
2019-01-14T05:43:02.326Z,6.11
2019-01-14T05:44:02.082Z,6.1
2019-01-14T05:45:02.067Z,6.12
2019-01-14T05:46:02.079Z,6.09
2019-01-14T05:47:02.093Z,6.07
2019-01-14T05:48:02.275Z,6.08
2019-01-14T05:49:02.295Z,6.07
2019-01-14T05:50:02.419Z,6.06
2019-01-14T05:51:02.171Z,6.07
2019-01-14T05:52:02.366Z,6.08
2019-01-14T05:53:02.407Z,6.08
2019-01-14T05:54:02.350Z,6.09
2019-01-14T05:55:03.212Z,6.06
2019-01-14T05:56:02.049Z,6.06
2019-01-14T05:57:02.383Z,6.04
2019-01-14T05:58:02.194Z,6.05
2019-01-14T05:59:02.408Z,6.03
2019-01-14T06:00:02.327Z,6.04
2019-01-14T06:01:02.727Z,6.02
2019-01-14T06:02:01.997Z,6.06
2019-01-14T06:03:02.092Z,6.04
2019-01-14T06:04:02.266Z,6.05
2019-01-14T06:05:03.319Z,6.05
2019-01-14T06:06:02.032Z,6.05
2019-01-14T06:07:02.332Z,6.01
2019-01-14T06:08:02.306Z,6.01
2019-01-14T06:09:02.284Z,5.99
2019-01-14T06:10:02.100Z,6
2019-01-14T06:11:02.495Z,6.01
2019-01-14T06:12:02.247Z,6
2019-01-14T06:13:01.944Z,6
2019-01-14T06:14:01.965Z,6
2019-01-14T06:15:02.110Z,6
2019-01-14T06:16:02.478Z,5.99
2019-01-14T06:17:01.914Z,6
2019-01-14T06:18:02.317Z,6
2019-01-14T06:19:02.278Z,5.99
2019-01-14T06:20:02.115Z,6
2019-01-14T06:21:02.160Z,6
2019-01-14T06:22:02.350Z,5.97
2019-01-14T06:23:01.974Z,5.99
2019-01-14T06:24:02.395Z,5.99
2019-01-14T06:25:01.878Z,5.99
2019-01-14T06:26:02.413Z,5.99
2019-01-14T06:27:01.974Z,6
2019-01-14T06:28:01.998Z,6.01
2019-01-14T06:29:02.152Z,6.01
2019-01-14T06:30:01.967Z,6.01
2019-01-14T06:31:01.953Z,6.01
2019-01-14T06:32:01.928Z,6.02
2019-01-14T06:33:03.351Z,6.02
2019-01-14T06:34:02.796Z,6.02
2019-01-14T06:35:02.245Z,6.02
2019-01-14T06:36:02.278Z,6.02
2019-01-14T06:37:02.199Z,6.01
2019-01-14T06:38:01.859Z,5.98
2019-01-14T06:39:02.601Z,6
2019-01-14T06:40:02.996Z,6.02
2019-01-14T06:41:01.952Z,6.01
2019-01-14T06:42:02.359Z,6.01
2019-01-14T06:43:02.245Z,6
2019-01-14T06:44:02.232Z,6
2019-01-14T06:45:02.275Z,6.01
2019-01-14T06:46:02.136Z,6.01
2019-01-14T06:47:02.125Z,6
2019-01-14T06:48:02.211Z,5.99
2019-01-14T06:49:01.959Z,6.01
2019-01-14T06:50:02.271Z,6.01
2019-01-14T06:51:02.327Z,6
2019-01-14T06:52:03.308Z,6.01
2019-01-14T06:53:02.126Z,6
2019-01-14T06:54:02.141Z,6.01
2019-01-14T06:55:02.771Z,6
2019-01-14T06:56:01.941Z,6.02
2019-01-14T06:57:02.192Z,6
2019-01-14T06:59:02.105Z,5.99
2019-01-14T07:00:02.239Z,6
2019-01-14T07:01:01.888Z,6
2019-01-14T07:02:01.869Z,5.98
2019-01-14T07:03:02.366Z,5.98
2019-01-14T07:04:01.948Z,5.97
2019-01-14T07:05:02.155Z,5.98
2019-01-14T07:06:02.289Z,5.95
2019-01-14T07:07:02.390Z,5.96
2019-01-14T07:08:02.299Z,5.95
2019-01-14T07:09:01.960Z,5.94
2019-01-14T07:10:02.044Z,5.94
2019-01-14T07:11:02.409Z,5.94
2019-01-14T07:12:01.919Z,5.94
2019-01-14T07:13:02.092Z,5.94
2019-01-14T07:14:02.227Z,5.94
2019-01-14T07:15:02.521Z,5.91
2019-01-14T07:16:01.943Z,5.9
2019-01-14T07:17:01.925Z,5.89
2019-01-14T07:18:01.956Z,5.92
2019-01-14T07:19:02.195Z,5.9
2019-01-14T07:20:01.941Z,5.89
2019-01-14T07:21:01.955Z,5.89
2019-01-14T07:22:02.190Z,5.9
2019-01-14T07:23:01.871Z,5.91
2019-01-14T07:24:01.835Z,5.88
2019-01-14T07:25:02.158Z,5.87
2019-01-14T07:26:02.210Z,5.87
2019-01-14T07:27:01.835Z,5.88
2019-01-14T07:28:01.904Z,5.85
2019-01-14T07:29:02.226Z,5.83
2019-01-14T07:30:02.432Z,5.82
2019-01-14T07:31:01.832Z,5.83
2019-01-14T07:32:01.874Z,5.83
2019-01-14T07:33:01.911Z,5.82
2019-01-14T07:34:01.960Z,5.82
2019-01-14T07:35:02.680Z,5.81
2019-01-14T07:36:01.921Z,5.81
2019-01-14T07:37:01.860Z,5.78
2019-01-14T07:38:07.448Z,5.81
2019-01-14T07:39:02.294Z,5.78
2019-01-14T07:40:01.942Z,5.79
2019-01-14T07:41:02.497Z,5.77
2019-01-14T07:42:01.770Z,5.78
2019-01-14T07:43:02.232Z,5.77
2019-01-14T07:44:01.793Z,5.77
2019-01-14T07:45:01.811Z,5.77
2019-01-14T07:46:02.030Z,5.76
2019-01-14T07:47:01.893Z,5.77
2019-01-14T07:48:01.870Z,5.76
2019-01-14T07:49:01.802Z,5.77
2019-01-14T07:50:02.023Z,5.77
2019-01-14T07:51:01.935Z,5.77
2019-01-14T07:52:02.007Z,5.76
2019-01-14T07:53:02.257Z,5.77
2019-01-14T07:54:02.006Z,5.77
2019-01-14T07:55:02.132Z,5.77
2019-01-14T07:56:02.102Z,5.76
2019-01-14T07:57:02.198Z,5.76
2019-01-14T07:58:02.214Z,5.77
2019-01-14T07:59:02.211Z,5.76
2019-01-14T08:00:02.210Z,5.77
2019-01-14T08:01:01.873Z,5.76
2019-01-14T08:02:02.272Z,5.76
2019-01-14T08:03:01.951Z,5.77
2019-01-14T08:04:02.242Z,5.8
2019-01-14T08:05:01.975Z,5.77
2019-01-14T08:06:01.815Z,5.76
2019-01-14T08:07:02.447Z,5.77
2019-01-14T08:08:02.027Z,5.78
2019-01-14T08:09:02.069Z,5.77
2019-01-14T08:10:01.984Z,5.78
2019-01-14T08:11:02.186Z,5.77
2019-01-14T08:12:02.377Z,5.8
2019-01-14T08:13:01.818Z,5.8
2019-01-14T08:14:01.776Z,5.81
2019-01-14T08:15:01.921Z,5.78
2019-01-14T08:16:01.570Z,5.79
2019-01-14T08:17:02.023Z,5.81
2019-01-14T08:18:02.720Z,5.83
2019-01-14T08:19:01.862Z,5.83
2019-01-14T08:20:01.813Z,5.82
2019-01-14T08:21:01.916Z,5.82
2019-01-14T08:22:01.837Z,5.81
2019-01-14T08:23:01.837Z,5.81
2019-01-14T08:24:01.746Z,5.79
2019-01-14T08:25:02.613Z,5.8
2019-01-14T08:26:01.952Z,5.8
2019-01-14T08:27:02.186Z,5.78
2019-01-14T08:28:02.188Z,5.77
2019-01-14T08:29:01.744Z,5.76
2019-01-14T08:30:01.834Z,5.76
2019-01-14T08:31:03.733Z,5.74
2019-01-14T08:32:02.309Z,5.75
2019-01-14T08:33:02.043Z,5.75
2019-01-14T08:34:02.129Z,5.73
2019-01-14T08:35:02.099Z,5.76
2019-01-14T08:36:01.846Z,5.76
2019-01-14T08:37:01.807Z,5.77
2019-01-14T08:38:01.782Z,5.78
2019-01-14T08:39:01.993Z,5.8
2019-01-14T08:40:02.316Z,5.8
2019-01-14T08:41:01.786Z,5.78
2019-01-14T08:42:01.904Z,5.81
2019-01-14T08:43:01.982Z,5.81
2019-01-14T08:44:01.780Z,5.82
2019-01-14T08:45:02.128Z,5.82
2019-01-14T08:46:01.870Z,5.82
2019-01-14T08:47:01.827Z,5.81
2019-01-14T08:48:01.731Z,5.82
2019-01-14T08:49:01.929Z,5.82
2019-01-14T08:50:02.051Z,5.83
2019-01-14T08:51:02.062Z,5.83
2019-01-14T08:52:01.846Z,5.86
2019-01-14T08:53:02.382Z,5.83
2019-01-14T08:54:02.205Z,5.86
2019-01-14T08:55:02.008Z,5.83
2019-01-14T08:56:01.733Z,5.85
2019-01-14T08:57:01.863Z,5.83
2019-01-14T08:58:01.958Z,5.86
2019-01-14T08:59:01.865Z,5.88
2019-01-14T09:00:02.099Z,5.89
2019-01-14T09:01:02.364Z,5.88
2019-01-14T09:02:01.799Z,5.88
2019-01-14T09:03:01.980Z,5.88
2019-01-14T09:04:02.246Z,5.9
2019-01-14T09:05:02.695Z,5.9
2019-01-14T09:06:03.611Z,5.9
2019-01-14T09:07:01.993Z,5.9
2019-01-14T09:08:01.836Z,5.92
2019-01-14T09:09:01.788Z,5.93
2019-01-14T09:10:02.134Z,5.93
2019-01-14T09:11:02.279Z,5.94
2019-01-14T09:12:01.971Z,5.94
2019-01-14T09:13:01.694Z,5.95
2019-01-14T09:15:01.764Z,5.92
2019-01-14T09:16:01.870Z,5.95
2019-01-14T09:17:03.980Z,5.96
2019-01-14T09:18:03.405Z,5.96
2019-01-14T09:19:01.874Z,5.98
2019-01-14T09:20:01.624Z,5.96
2019-01-14T09:21:02.377Z,5.97
2019-01-14T09:22:01.659Z,6.01
2019-01-14T09:23:02.021Z,5.97
2019-01-14T09:24:02.221Z,6
2019-01-14T09:25:18.236Z,6.01
2019-01-14T09:26:01.804Z,6.02
2019-01-14T09:27:01.707Z,6.03
2019-01-14T09:28:01.987Z,6.03
2019-01-14T09:29:01.694Z,6.06
2019-01-14T09:30:04.535Z,6.07
2019-01-14T09:31:18.381Z,6.06
2019-01-14T09:32:02.595Z,6.08
2019-01-14T09:33:01.758Z,6.09
2019-01-14T09:34:01.746Z,6.11
2019-01-14T09:35:01.730Z,6.1
2019-01-14T09:36:01.685Z,6.16
2019-01-14T09:37:01.767Z,6.21
2019-01-14T09:38:01.867Z,6.21
2019-01-14T09:39:01.732Z,6.23
2019-01-14T09:40:01.701Z,6.27
2019-01-14T09:41:01.665Z,6.3
2019-01-14T09:42:03.495Z,6.36
2019-01-14T09:43:02.047Z,6.37
2019-01-14T09:44:02.590Z,6.41
2019-01-14T09:45:01.819Z,6.43
2019-01-14T09:46:01.887Z,6.47
2019-01-14T09:47:01.644Z,6.5
2019-01-14T09:48:01.975Z,6.5
2019-01-14T09:49:01.187Z,6.48
2019-01-14T09:50:02.019Z,6.52
2019-01-14T09:51:03.531Z,6.52
2019-01-14T09:52:01.623Z,6.55
2019-01-14T09:53:01.671Z,6.6
2019-01-14T09:54:01.742Z,6.59
2019-01-14T09:55:06.217Z,6.6
2019-01-14T09:56:01.878Z,6.6
2019-01-14T09:57:02.028Z,6.6
2019-01-14T09:58:01.697Z,6.64
2019-01-14T09:59:02.029Z,6.63
2019-01-14T10:00:01.852Z,6.64
2019-01-14T10:01:07.905Z,6.65
2019-01-14T10:02:06.011Z,6.67
2019-01-14T10:03:02.155Z,6.72
2019-01-14T10:04:01.712Z,6.75
2019-01-14T10:05:01.885Z,6.72
2019-01-14T10:06:01.725Z,6.76
2019-01-14T10:07:01.642Z,6.8
2019-01-14T10:08:01.635Z,6.82
2019-01-14T10:09:01.233Z,6.83
2019-01-14T10:10:01.707Z,6.84
2019-01-14T10:11:01.738Z,6.84
2019-01-14T10:12:02.043Z,6.82
2019-01-14T10:13:01.721Z,6.82
2019-01-14T10:14:01.897Z,6.87
2019-01-14T10:15:01.905Z,6.84
2019-01-14T10:16:02.713Z,6.88
2019-01-14T10:17:02.307Z,6.84
2019-01-14T10:18:02.003Z,6.85
2019-01-14T10:19:03.400Z,6.86
2019-01-14T10:20:02.233Z,6.87
2019-01-14T10:21:01.854Z,6.88
2019-01-14T10:22:02.052Z,6.88
2019-01-14T10:23:01.651Z,6.85
2019-01-14T10:24:01.707Z,6.84
2019-01-14T10:25:01.829Z,6.83
2019-01-14T10:26:01.581Z,6.82
2019-01-14T10:27:01.549Z,6.85
2019-01-14T10:28:02.234Z,6.84
2019-01-14T10:29:01.696Z,6.84
2019-01-14T10:30:01.660Z,6.87
2019-01-14T10:31:01.924Z,6.88
2019-01-14T10:32:02.071Z,6.85
2019-01-14T10:33:01.582Z,6.86
2019-01-14T10:34:03.265Z,6.89
2019-01-14T10:35:01.832Z,6.91
2019-01-14T10:36:01.785Z,6.92
2019-01-14T10:37:01.673Z,6.92
2019-01-14T10:38:02.286Z,6.92
2019-01-14T10:39:01.985Z,6.91
2019-01-14T10:40:01.610Z,6.95
2019-01-14T10:41:01.619Z,6.93
2019-01-14T10:42:05.599Z,6.96
2019-01-14T10:43:02.675Z,6.94
2019-01-14T10:44:01.589Z,6.96
2019-01-14T10:45:01.617Z,6.91
2019-01-14T10:46:01.703Z,6.94
2019-01-14T10:47:01.792Z,6.91
2019-01-14T10:48:01.690Z,6.93
2019-01-14T10:49:01.331Z,6.94
2019-01-14T10:50:01.649Z,6.91
2019-01-14T10:51:02.143Z,6.97
2019-01-14T10:52:01.951Z,6.96
2019-01-14T10:53:01.582Z,6.94
2019-01-14T10:54:01.885Z,6.92
2019-01-14T10:55:01.653Z,6.91
2019-01-14T10:56:01.836Z,6.92
2019-01-14T10:57:01.653Z,6.92
2019-01-14T10:58:01.887Z,6.95
2019-01-14T10:59:02.107Z,6.95
2019-01-14T11:00:02.815Z,6.93
2019-01-14T11:01:01.601Z,6.93
2019-01-14T11:02:01.639Z,6.93
2019-01-14T11:03:02.000Z,6.91
2019-01-14T11:04:01.579Z,6.94
2019-01-14T11:05:01.693Z,6.95
2019-01-14T11:06:02.085Z,6.97
2019-01-14T11:07:03.528Z,6.99
2019-01-14T11:08:01.521Z,7.02
2019-01-14T11:09:06.477Z,7.05
2019-01-14T11:10:01.731Z,7.09
2019-01-14T11:11:01.582Z,7.11
2019-01-14T11:12:01.508Z,7.12
2019-01-14T11:13:01.542Z,7.14
2019-01-14T11:14:01.458Z,7.15
2019-01-14T11:15:03.608Z,7.19
2019-01-14T11:16:01.494Z,7.2
2019-01-14T11:17:02.598Z,7.19
2019-01-14T11:18:01.645Z,7.18
2019-01-14T11:19:01.645Z,7.19
2019-01-14T11:20:01.504Z,7.17
2019-01-14T11:21:01.509Z,7.2
2019-01-14T11:22:01.462Z,7.18
2019-01-14T11:23:01.517Z,7.19
2019-01-14T11:24:02.086Z,7.15
2019-01-14T11:25:02.847Z,7.15
2019-01-14T11:26:01.500Z,7.14
2019-01-14T11:27:01.457Z,7.14
2019-01-14T11:28:01.562Z,7.12
2019-01-14T11:29:01.482Z,7.15
2019-01-14T11:30:01.505Z,7.14
2019-01-14T11:31:02.554Z,7.14
2019-01-14T11:32:01.506Z,7.14
2019-01-14T11:34:01.796Z,7.13
2019-01-14T11:35:01.579Z,7.12
2019-01-14T11:36:01.434Z,7.12
2019-01-14T11:37:01.501Z,7.14
2019-01-14T11:38:01.426Z,7.13
2019-01-14T11:39:05.662Z,7.11
2019-01-14T11:40:02.043Z,7.12
2019-01-14T11:41:01.545Z,7.1
2019-01-14T11:42:01.790Z,7.1
2019-01-14T11:43:01.907Z,7.09
2019-01-14T11:44:01.758Z,7.09
2019-01-14T11:45:01.685Z,7.09
2019-01-14T11:46:01.551Z,7.09
2019-01-14T11:47:02.237Z,7.07
2019-01-14T11:48:01.785Z,7.09
2019-01-14T11:49:01.482Z,7.08
2019-01-14T11:50:01.963Z,7.08
2019-01-14T11:51:01.676Z,7.08
2019-01-14T11:52:01.970Z,7.08
2019-01-14T11:53:01.794Z,7.08
2019-01-14T11:54:01.475Z,7.1
2019-01-14T11:55:01.552Z,7.13
2019-01-14T11:56:01.502Z,6.67
2019-01-14T11:57:01.703Z,5.85
2019-01-14T11:58:01.907Z,5.6
2019-01-14T11:59:01.484Z,5.5
2019-01-14T12:00:02.245Z,5.33
2019-01-14T12:01:02.355Z,5.01
2019-01-14T12:02:03.259Z,4.58
2019-01-14T12:03:01.532Z,4.25
2019-01-14T12:04:01.445Z,4.14
2019-01-14T12:05:01.500Z,4.1
2019-01-14T12:06:01.757Z,4.1
2019-01-14T12:07:01.893Z,4.06
2019-01-14T12:08:01.564Z,4
2019-01-14T12:09:02.099Z,3.93
2019-01-14T12:10:01.628Z,3.96
2019-01-14T12:11:01.195Z,3.93
2019-01-14T12:12:01.745Z,3.94
2019-01-14T12:13:01.422Z,3.91
2019-01-14T12:14:01.417Z,3.88
2019-01-14T12:15:01.748Z,3.87
2019-01-14T12:16:01.969Z,3.83
2019-01-14T12:17:01.455Z,3.87
2019-01-14T12:18:01.455Z,3.88
2019-01-14T12:19:02.142Z,3.79
2019-01-14T12:20:01.559Z,3.73
2019-01-14T12:21:01.509Z,3.75
2019-01-14T12:22:01.539Z,3.76
2019-01-14T12:23:01.467Z,3.72
2019-01-14T12:24:01.627Z,3.74
2019-01-14T12:25:01.471Z,3.77
2019-01-14T12:26:01.551Z,3.75
2019-01-14T12:27:01.751Z,3.76
2019-01-14T12:28:01.549Z,3.75
2019-01-14T12:29:01.473Z,3.79
2019-01-14T12:30:01.543Z,3.84
2019-01-14T12:31:01.827Z,3.83
2019-01-14T12:32:01.451Z,3.88
2019-01-14T12:33:03.057Z,3.9
2019-01-14T12:34:01.653Z,3.9
2019-01-14T12:35:01.467Z,3.88
2019-01-14T12:36:01.455Z,3.87
2019-01-14T12:37:01.658Z,3.91
2019-01-14T12:38:01.619Z,3.94
2019-01-14T12:39:01.717Z,3.96
2019-01-14T12:40:01.799Z,3.95
2019-01-14T12:41:01.795Z,3.96
2019-01-14T12:42:01.559Z,4.01
2019-01-14T12:43:03.252Z,4.01
2019-01-14T12:44:01.723Z,4.03
2019-01-14T12:45:01.562Z,4.03
2019-01-14T12:46:01.374Z,4.05
2019-01-14T12:47:01.610Z,4.06
2019-01-14T12:48:01.421Z,4.04
2019-01-14T12:49:01.525Z,4.02
2019-01-14T12:50:01.800Z,4.06
2019-01-14T12:51:02.255Z,4.05
2019-01-14T12:52:01.585Z,4.02
2019-01-14T12:53:01.491Z,4.03
2019-01-14T12:54:01.602Z,4.03
2019-01-14T12:55:01.424Z,4.02
2019-01-14T12:56:02.212Z,4.05
2019-01-14T12:57:01.497Z,4.03
2019-01-14T12:58:01.576Z,4.08
2019-01-14T12:59:01.464Z,4.08
2019-01-14T13:00:01.466Z,4.08
2019-01-14T13:01:01.522Z,4.1
2019-01-14T13:02:01.476Z,4.07
2019-01-14T13:03:01.422Z,4.1
2019-01-14T13:04:01.529Z,4.13
2019-01-14T13:05:01.365Z,4.15
2019-01-14T13:06:01.519Z,4.13
2019-01-14T13:07:01.470Z,4.15
2019-01-14T13:08:01.532Z,4.18
2019-01-14T13:09:01.513Z,4.17
2019-01-14T13:10:01.413Z,4.14
2019-01-14T13:11:01.334Z,4.13
2019-01-14T13:12:01.701Z,4.09
2019-01-14T13:13:01.335Z,4.11
2019-01-14T13:14:01.409Z,4.1
2019-01-14T13:15:01.358Z,4.13
2019-01-14T13:16:01.296Z,4.16
2019-01-14T13:17:01.738Z,4.19
2019-01-14T13:18:05.930Z,4.12
2019-01-14T13:19:01.426Z,4.13
2019-01-14T13:20:01.531Z,4.15
2019-01-14T13:21:01.335Z,4.18
2019-01-14T13:22:01.316Z,4.19
2019-01-14T13:23:01.813Z,4.19
2019-01-14T13:24:01.784Z,4.19
2019-01-14T13:25:01.606Z,4.21
2019-01-14T13:26:01.909Z,4.25